Time;durP1;ratioP1;P1;durP2;ratioP2;P2;SDS_P1;SDS_P2;PMS_P1;PMS_P2;Temp;Humidity;BMP_temperature;BMP_pressure;BME280_temperature;BME280_humidity;BME280_pressure;Samples;Min_cycle;Max_cycle;Signal;HPM_P1;HPM_P2
2023/12/17 08:59:29;;;;;;;11.10;6.57;;;4.70;97.60;;;5.08;65.15;100947.50;5374897;23;98418;-81
2023/12/17 11:31:39;;;;;;;9.03;6.70;;;9.10;95.10;;;9.90;54.97;100803.16;5517426;23;98664;-84
2023/12/17 11:38:55;;;;;;;11.20;7.90;;;9.40;94.70;;;10.20;54.63;100799.06;4828184;29;109388;-86
2023/12/17 11:41:56;;;;;;;8.77;6.70;;;8.40;93.80;;;10.22;53.39;100790.50;4847518;29;123827;-85
2023/12/17 11:45:28;;;;;;;11.27;6.73;;;9.20;93.30;;;10.26;53.53;100799.94;4825683;29;123495;-86
2023/12/17 12:00:02;;;;;;;8.90;6.87;;;10.10;92.90;;;10.90;52.61;100797.19;5078836;23;97832;-86
2023/12/17 12:05:32;;;;;;;8.10;5.83;;;10.50;92.50;;;11.29;51.79;100788.59;5559159;23;98278;-84
2023/12/17 12:08:51;;;;;;;8.80;6.50;;;10.60;92.80;;;11.40;51.77;100783.97;4869014;28;122473;-85
2023/12/17 12:12:33;;;;;;;7.47;5.73;;;10.90;92.40;;;11.65;51.57;100781.28;4876869;28;111218;-87
2023/12/17 12:23:20;;;;;;;6.93;6.00;;;9.90;91.70;;;12.29;50.32;100751.56;4900923;28;124820;-88
2023/12/17 12:26:44;;;;;;;8.60;5.90;;;10.70;91.20;;;12.58;50.27;100749.91;4884894;28;109269;-87
2023/12/17 12:29:48;;;;;;;10.07;6.17;;;12.00;91.80;;;12.84;49.82;100738.78;4823907;29;109254;-88
2023/12/17 12:33:17;;;;;;;8.67;5.37;;;12.20;91.70;;;13.06;49.55;100732.94;4821560;29;123478;-85
2023/12/17 12:36:11;;;;;;;7.60;6.07;;;12.50;91.60;;;13.32;48.92;100730.91;4830511;29;124601;-88
2023/12/17 12:38:39;;;;;;;9.87;6.00;;;12.70;91.40;;;13.50;48.73;100726.69;4811066;29;108981;-90
2023/12/17 12:41:14;;;;;;;10.43;6.20;;;12.90;91.20;;;13.67;47.67;100732.72;4820417;29;107374;-88
2023/12/17 12:43:52;;;;;;;8.87;5.87;;;13.10;90.50;;;13.82;47.56;100725.41;4806828;29;123935;-90
2023/12/17 12:46:21;;;;;;;7.70;5.73;;;13.30;90.70;;;13.93;47.86;100713.94;4819046;29;121937;-88
2023/12/17 12:49:04;;;;;;;7.20;5.53;;;14.80;91.50;;;14.13;47.44;100721.31;4790045;29;109930;-86
2023/12/17 12:51:33;;;;;;;7.70;5.67;;;13.70;90.40;;;14.30;46.98;100717.31;4821654;29;108760;-86
2023/12/17 12:54:06;;;;;;;9.67;5.90;;;14.00;90.50;;;14.49;46.65;100715.47;4817452;29;124194;-88
2023/12/17 12:56:45;;;;;;;6.73;4.90;;;14.00;90.10;;;14.63;46.58;100707.31;4789441;29;122208;-88
2023/12/17 12:59:19;;;;;;;8.40;6.30;;;14.10;89.80;;;14.83;45.98;100703.50;4807855;29;107744;-89
2023/12/17 13:01:46;;;;;;;8.70;6.13;;;14.30;90.00;;;15.02;45.93;100696.06;4786654;29;107910;-88
2023/12/17 13:04:17;;;;;;;8.30;5.90;;;14.50;89.30;;;15.23;45.54;100693.00;4776622;29;124150;-89
2023/12/17 13:06:50;;;;;;;9.47;5.70;;;16.50;90.10;;;15.39;44.88;100688.94;4778425;29;122981;-88
2023/12/17 13:09:17;;;;;;;7.43;5.40;;;14.90;88.10;;;15.52;44.79;100683.75;4792934;29;109195;-88
2023/12/17 13:11:52;;;;;;;7.50;5.80;;;15.10;88.00;;;15.65;44.32;100675.47;4797243;29;107913;-90
2023/12/17 13:14:20;;;;;;;8.10;5.67;;;15.30;87.00;;;15.80;44.13;100668.88;4812147;29;124071;-89
2023/12/17 13:16:50;;;;;;;8.03;5.63;;;15.40;86.90;;;15.93;43.65;100663.66;4801242;29;123020;-88
2023/12/17 13:19:25;;;;;;;7.83;5.13;;;15.60;86.70;;;16.02;43.15;100667.44;4815264;29;109375;-89
2023/12/17 13:22:01;;;;;;;7.37;5.77;;;17.50;87.10;;;16.10;43.03;100675.94;4799528;29;108800;-90
2023/12/17 13:24:29;;;;;;;7.67;5.57;;;15.70;84.50;;;16.16;43.09;100671.09;4817117;29;98825;-89
2023/12/17 13:27:02;;;;;;;9.40;6.00;;;16.00;84.50;;;16.22;42.69;100666.28;4815225;29;124093;-90
2023/12/17 13:29:28;;;;;;;9.17;4.90;;;16.10;84.10;;;16.18;42.58;100660.47;4835694;29;108337;-90
2023/12/17 13:31:55;;;;;;;7.17;5.00;;;16.20;83.40;;;16.15;42.60;100655.53;4821549;29;108617;-90
2023/12/17 13:34:25;;;;;;;8.00;6.00;;;16.20;82.70;;;16.10;42.39;100656.41;4819732;29;123217;-89
2023/12/17 13:36:54;;;;;;;9.23;6.17;;;16.30;82.60;;;15.99;42.17;100654.94;4835676;29;122746;-89
2023/12/17 13:39:24;;;;;;;7.20;5.00;;;16.20;81.60;;;15.92;42.13;100650.88;4820403;29;109971;-90
2023/12/17 13:41:51;;;;;;;8.77;5.50;;;16.20;80.60;;;15.78;41.74;100651.63;4850468;29;109458;-88
2023/12/17 13:44:26;;;;;;;9.90;6.67;;;16.10;79.70;;;15.60;41.85;100646.84;4806580;29;122537;-89
2023/12/17 13:46:55;;;;;;;7.70;5.63;;;15.90;79.30;;;15.44;42.12;100644.28;4836946;29;124517;-89
2023/12/17 13:49:25;;;;;;;6.53;5.27;;;15.90;79.20;;;15.34;42.24;100641.66;4837230;29;107449;-90
2023/12/17 13:51:56;;;;;;;7.87;5.77;;;15.80;79.30;;;15.27;42.47;100641.19;4841642;29;107546;-89
2023/12/17 13:54:23;;;;;;;8.07;5.13;;;15.70;80.20;;;15.18;42.78;100642.97;4848815;28;125144;-89
2023/12/17 13:56:51;;;;;;;7.43;5.17;;;15.60;80.10;;;15.12;42.91;100633.00;4821804;29;121930;-90
2023/12/17 13:59:18;;;;;;;7.37;4.80;;;15.40;80.10;;;15.06;42.86;100639.78;4854702;29;109340;-90
2023/12/17 14:01:47;;;;;;;7.43;4.80;;;15.30;80.10;;;14.97;43.35;100643.22;4821891;29;107959;-90
2023/12/17 14:04:21;;;;;;;7.07;5.10;;;15.30;80.30;;;14.90;42.95;100636.34;4839393;29;122927;-91
2023/12/17 14:07:10;;;;;;;8.97;6.30;;;15.20;80.40;;;14.77;43.42;100632.31;4850220;29;123723;-90
2023/12/17 14:09:38;;;;;;;7.43;5.60;;;15.10;80.00;;;14.66;43.41;100630.78;4823445;29;108041;-90
2023/12/17 14:12:12;;;;;;;7.10;5.97;;;14.90;80.20;;;14.52;42.94;100636.19;4823522;29;109103;-89
2023/12/17 14:14:43;;;;;;;7.63;5.47;;;14.80;79.40;;;14.36;43.35;100638.28;4831295;29;123114;-91
2023/12/17 14:17:20;;;;;;;10.43;6.43;;;14.70;80.00;;;14.26;43.95;100628.06;4852067;29;123229;-92
2023/12/17 14:19:51;;;;;;;8.60;5.57;;;14.50;80.90;;;14.12;43.89;100632.66;4847047;29;112749;-91
2023/12/17 14:22:20;;;;;;;7.03;4.77;;;14.50;80.50;;;14.02;44.33;100641.88;4855485;29;113086;-90
2023/12/17 14:24:51;;;;;;;8.80;6.60;;;14.40;81.10;;;13.96;44.40;100634.72;4842849;29;123215;-89
2023/12/17 14:27:24;;;;;;;7.93;5.87;;;14.20;80.90;;;13.88;44.58;100632.56;4858616;28;122418;-91
2023/12/17 14:29:53;;;;;;;8.30;5.57;;;14.20;81.40;;;13.79;44.70;100639.88;4834171;29;114818;-90
2023/12/17 14:32:32;;;;;;;8.77;5.60;;;14.10;81.70;;;13.70;44.74;100640.47;4861392;28;114466;-90
2023/12/17 14:34:59;;;;;;;7.40;5.20;;;14.00;81.40;;;13.62;45.10;100641.09;4838669;29;123811;-90
2023/12/17 14:37:27;;;;;;;7.43;5.80;;;13.90;81.40;;;13.53;45.25;100648.34;4822453;29;123654;-90
2023/12/17 14:39:59;;;;;;;8.00;5.40;;;13.80;81.60;;;13.46;45.25;100642.31;4810105;29;112532;-91
2023/12/17 14:42:33;;;;;;;5.83;4.57;;;13.70;81.40;;;13.37;45.16;100641.22;4823996;29;112052;-88
2023/12/17 14:45:01;;;;;;;7.00;5.00;;;13.60;81.50;;;13.30;45.52;100640.69;4829694;29;123417;-90
2023/12/17 14:47:32;;;;;;;9.37;5.83;;;14.80;83.10;;;13.23;45.82;100647.38;4829679;29;122994;-91
2023/12/17 14:49:58;;;;;;;7.70;5.63;;;13.40;82.20;;;13.15;45.91;100652.69;4812493;29;112578;-90
2023/12/17 14:52:26;;;;;;;9.27;5.10;;;13.40;83.00;;;13.06;45.92;100644.13;4832659;29;113618;-90
2023/12/17 14:55:15;;;;;;;8.70;4.97;;;12.00;81.30;;;13.00;46.00;100650.78;4797622;29;123253;-87
2023/12/17 14:57:50;;;;;;;4.73;3.77;;;13.30;82.40;;;12.93;46.18;100653.88;4752829;29;122947;-89
2023/12/17 15:00:34;;;;;;;9.30;4.27;;;13.20;82.50;;;12.81;46.05;100643.09;4798126;29;113672;-90
2023/12/17 15:03:04;;;;;;;8.20;5.20;;;13.00;82.80;;;12.74;46.47;100650.88;4793980;29;112316;-91
2023/12/17 15:06:04;;;;;;;6.87;4.43;;;13.00;82.90;;;12.65;46.53;100660.88;4787935;29;122297;-89
2023/12/17 15:09:26;;;;;;;6.70;4.90;;;12.90;82.80;;;12.58;46.68;100652.03;4795756;29;123581;-89
2023/12/17 15:11:58;;;;;;;7.30;4.87;;;12.70;83.10;;;12.51;47.40;100648.72;4824405;29;114859;-89
2023/12/17 15:15:14;;;;;;;11.67;5.47;;;12.70;83.70;;;12.47;48.28;100651.22;4844132;29;115157;-88
2023/12/17 15:17:44;;;;;;;9.00;5.40;;;12.50;84.90;;;12.49;48.82;100651.78;4852074;29;123639;-89
2023/12/17 15:24:14;;;;;;;7.40;4.70;;;12.60;86.20;;;12.44;48.38;100648.16;4824784;29;116261;-89
2023/12/17 15:27:26;;;;;;;8.63;4.43;;;12.50;86.30;;;12.33;48.68;100642.66;4772998;29;113429;-89
2023/12/17 15:30:46;;;;;;;7.87;5.00;;;12.40;85.70;;;12.20;48.32;100645.97;4789932;29;123297;-89
2023/12/17 15:33:54;;;;;;;6.17;4.37;;;12.30;85.30;;;12.11;48.34;100642.09;4750961;29;123430;-90
2023/12/17 15:41:08;;;;;;;8.07;4.93;;;12.20;85.30;;;11.87;48.46;100653.72;4791071;29;115143;-88
2023/12/17 15:47:44;;;;;;;7.73;5.20;;;11.90;86.00;;;11.62;48.89;100650.88;4877925;28;124194;-89
2023/12/17 15:51:23;;;;;;;6.73;4.90;;;11.80;85.50;;;11.52;48.93;100659.16;4906340;28;113944;-87
2023/12/17 15:54:28;;;;;;;8.17;5.10;;;11.70;85.70;;;11.40;49.39;100674.09;4910615;28;114024;-89
2023/12/17 15:57:22;;;;;;;7.17;5.30;;;11.50;85.90;;;11.36;49.47;100666.59;4861792;28;124092;-87
2023/12/17 16:00:21;;;;;;;9.73;5.20;;;11.70;86.80;;;11.29;49.55;100661.31;4806330;29;124486;-88
2023/12/17 16:03:57;;;;;;;7.87;4.70;;;11.40;86.40;;;11.18;49.60;100671.50;4772604;29;115263;-88
2023/12/17 16:07:39;;;;;;;6.60;4.73;;;11.30;86.50;;;11.10;49.57;100673.97;4734134;29;116228;-89
2023/12/17 16:25:53;;;;;;;8.00;6.00;;;10.80;87.80;;;10.63;50.87;100669.28;4580680;30;125162;-87
2023/12/17 16:36:19;;;;;;;14.33;7.17;;;10.40;88.30;;;10.38;51.38;100665.25;4576593;30;116192;-85
2023/12/17 16:39:16;;;;;;;12.40;7.53;;;10.50;88.70;;;10.33;51.52;100666.03;4556427;30;124120;-86
2023/12/17 16:42:46;;;;;;;8.90;6.50;;;10.30;88.90;;;10.25;52.14;100673.97;4660476;30;123736;-87
2023/12/17 16:45:34;;;;;;;12.93;7.23;;;10.30;89.10;;;10.20;52.20;100668.41;4627552;30;114232;-85
2023/12/17 16:48:06;;;;;;;13.43;7.80;;;10.20;89.50;;;10.17;52.16;100672.50;4689182;29;113255;-85
2023/12/17 16:50:39;;;;;;;13.53;7.50;;;13.00;91.10;;;10.16;52.80;100677.22;4787632;29;122274;-84
2023/12/17 16:53:20;;;;;;;12.87;8.20;;;10.10;90.00;;;10.16;52.60;100679.97;4777438;29;123609;-85
2023/12/17 16:56:09;;;;;;;14.77;8.50;;;10.10;90.00;;;10.11;52.88;100682.69;4728536;29;113935;-86
2023/12/17 16:58:59;;;;;;;16.40;9.00;;;10.00;90.20;;;10.07;52.79;100676.00;4760787;29;114459;-86
2023/12/17 17:01:35;;;;;;;41.63;14.20;;;10.50;90.60;;;10.03;53.11;100683.16;4783442;29;122976;-86
2023/12/17 17:21:02;;;;;;;17.87;10.30;;;9.70;91.30;;;9.68;54.11;100689.19;5517078;23;100974;-87
2023/12/17 17:29:38;;;;;;;20.57;11.63;;;9.50;91.50;;;9.57;54.41;100691.00;4868132;28;96756;-86
